Time;durP1;ratioP1;P1;durP2;ratioP2;P2;SDS_P1;SDS_P2;PMS_P1;PMS_P2;Temp;Humidity;BMP_temperature;BMP_pressure;BME280_temperature;BME280_humidity;BME280_pressure;Samples;Min_cycle;Max_cycle;Signal;HPM_P1;HPM_P2
2022/08/13 00:01:45;;;;;;;3.40;3.20;;;;;;;18.97;53.02;101074.16;5070459;28;20063;-23
2022/08/13 00:04:14;;;;;;;3.25;3.00;;;;;;;18.94;52.52;101071.63;5047447;28;20032;-23
2022/08/13 00:09:15;;;;;;;4.72;3.42;;;;;;;18.83;52.21;101075.56;5064274;28;20036;-25
2022/08/13 00:14:34;;;;;;;3.10;2.80;;;;;;;18.71;51.90;101071.53;5083263;28;20500;-22
2022/08/13 00:17:00;;;;;;;3.40;3.20;;;;;;;18.66;52.06;101070.84;5073111;28;20028;-22
2022/08/13 00:19:26;;;;;;;3.53;3.15;;;;;;;18.61;51.80;101072.84;5083522;28;20038;-25
2022/08/13 00:21:53;;;;;;;3.00;2.80;;;;;;;18.56;51.67;101066.78;5053451;28;20021;-22
2022/08/13 00:24:18;;;;;;;3.33;3.00;;;;;;;18.52;52.38;101068.69;5044893;28;20462;-23
2022/08/13 00:26:44;;;;;;;4.07;3.63;;;;;;;18.47;52.43;101078.66;5079012;28;20020;-23
2022/08/13 00:29:09;;;;;;;3.28;3.08;;;;;;;18.43;52.11;101072.56;5092945;28;20062;-21
2022/08/13 00:31:37;;;;;;;3.05;2.85;;;;;;;18.38;52.62;101073.66;5086261;28;20102;-21
2022/08/13 00:34:03;;;;;;;4.03;3.42;;;;;;;18.34;52.64;101068.41;5061256;28;20033;-22
2022/08/13 00:36:34;;;;;;;3.20;3.00;;;;;;;18.36;52.90;101068.38;5080297;28;20023;-23
2022/08/13 00:38:59;;;;;;;3.30;3.10;;;;;;;18.34;52.92;101064.84;5052511;28;20032;-25
2022/08/13 00:41:40;;;;;;;3.70;3.40;;;;;;;18.30;52.60;101068.56;5052570;28;20029;-22
2022/08/13 00:44:08;;;;;;;3.90;3.60;;;;;;;18.28;52.53;101067.78;5052392;28;20031;-23
2022/08/13 00:46:34;;;;;;;3.05;2.80;;;;;;;18.25;52.81;101075.88;5052690;28;20029;-22
2022/08/13 00:49:03;;;;;;;4.10;3.33;;;;;;;18.21;52.98;101067.13;5052489;28;20047;-22
2022/08/13 00:51:30;;;;;;;3.80;3.50;;;;;;;18.19;52.96;101068.97;5075439;28;20025;-23
2022/08/13 00:53:58;;;;;;;3.28;3.08;;;;;;;18.16;53.44;101066.38;5076845;28;20086;-22
2022/08/13 00:56:24;;;;;;;4.10;3.70;;;;;;;18.12;53.40;101064.75;5066736;28;20043;-22
2022/08/13 00:58:50;;;;;;;3.58;3.28;;;;;;;18.12;53.50;101064.75;5073999;28;20109;-23
2022/08/13 01:01:19;;;;;;;3.88;3.58;;;;;;;18.07;53.44;101056.88;5060146;28;20091;-22
2022/08/13 01:03:45;;;;;;;4.20;3.80;;;;;;;18.07;53.60;101059.53;5083030;28;20186;-23
2022/08/13 01:06:10;;;;;;;3.88;3.30;;;;;;;18.03;53.38;101058.78;5043496;28;20036;-22
2022/08/13 01:08:40;;;;;;;3.60;3.30;;;;;;;18.01;53.36;101057.94;5051945;28;20021;-22
2022/08/13 01:11:07;;;;;;;3.97;3.42;;;;;;;17.96;53.11;101065.25;5057351;28;20058;-24
2022/08/13 01:13:33;;;;;;;4.35;4.05;;;;;;;17.94;53.07;101064.44;5071565;28;20398;-22
2022/08/13 01:16:01;;;;;;;3.72;3.50;;;;;;;17.93;52.76;101062.69;5054078;28;20382;-22
2022/08/13 01:18:27;;;;;;;3.70;3.40;;;;;;;17.93;53.01;101060.00;5053261;28;20024;-23
2022/08/13 01:21:03;;;;;;;3.88;3.58;;;;;;;17.88;52.92;101060.19;5036899;28;20024;-22
2022/08/13 01:23:29;;;;;;;3.95;3.28;;;;;;;17.88;52.79;101056.63;5078311;28;20044;-22
2022/08/13 01:25:59;;;;;;;3.88;3.58;;;;;;;17.78;52.60;101054.25;5086675;28;20028;-22
2022/08/13 01:28:27;;;;;;;4.25;3.95;;;;;;;17.75;52.60;101057.06;5076236;28;20104;-22
2022/08/13 01:30:55;;;;;;;8.35;3.67;;;;;;;17.73;52.87;101058.00;5051546;28;20078;-22
2022/08/13 01:33:21;;;;;;;3.45;3.15;;;;;;;17.69;52.79;101057.25;5051570;28;20075;-23
2022/08/13 01:35:47;;;;;;;3.30;3.10;;;;;;;17.66;52.69;101052.00;5054942;28;20021;-23
2022/08/13 01:38:14;;;;;;;4.18;3.83;;;;;;;17.64;52.85;101049.38;5064652;28;20440;-22
2022/08/13 01:40:40;;;;;;;3.60;3.40;;;;;;;17.63;52.70;101052.09;5065101;28;20025;-22
2022/08/13 01:43:05;;;;;;;3.60;3.30;;;;;;;17.58;52.57;101054.94;5066560;28;20074;-22
2022/08/13 01:45:31;;;;;;;5.47;5.00;;;;;;;17.55;52.81;101055.03;5070700;28;20020;-26
2022/08/13 01:50:42;;;;;;;3.33;3.13;;;;;;;17.48;53.13;101048.16;5071207;28;20094;-24
2022/08/13 01:53:11;;;;;;;27.00;6.05;;;;;;;17.46;53.25;101040.19;5052953;28;20081;-23
2022/08/13 01:55:39;;;;;;;9.95;4.35;;;;;;;17.41;53.39;101034.16;5057242;28;20016;-22
2022/08/13 01:58:18;;;;;;;5.50;3.25;;;;;;;17.42;53.25;101036.78;5077246;28;20083;-22
2022/08/13 02:00:46;;;;;;;3.70;3.50;;;;;;;17.37;53.54;101040.50;5047230;28;20490;-23
2022/08/13 02:03:12;;;;;;;9.70;4.20;;;;;;;17.34;53.20;101030.78;5072740;28;20050;-23
2022/08/13 02:05:39;;;;;;;5.65;3.50;;;;;;;17.33;53.26;101034.38;5070993;28;20051;-23
2022/08/13 02:08:09;;;;;;;3.72;3.42;;;;;;;17.31;53.21;101031.75;5053023;28;20509;-22
2022/08/13 02:10:40;;;;;;;3.47;3.27;;;;;;;17.27;53.69;101037.25;5051116;28;20029;-21
2022/08/13 02:13:08;;;;;;;3.80;3.50;;;;;;;17.23;53.58;101033.81;5038853;28;20047;-25
2022/08/13 02:15:33;;;;;;;4.00;3.70;;;;;;;17.22;53.58;101042.72;5082752;28;20388;-22
2022/08/13 02:18:01;;;;;;;3.65;3.40;;;;;;;17.23;53.59;101038.25;5057444;28;20024;-21
2022/08/13 02:20:28;;;;;;;3.92;3.63;;;;;;;17.22;53.48;101039.19;5081726;28;20393;-21
2022/08/13 02:22:53;;;;;;;4.13;3.72;;;;;;;17.17;53.40;101044.66;5079724;28;20563;-21
2022/08/13 02:25:20;;;;;;;3.60;3.40;;;;;;;17.12;52.90;101033.28;5070998;28;20032;-22
2022/08/13 02:27:48;;;;;;;3.90;3.65;;;;;;;17.06;53.09;101037.00;5055128;28;20125;-22
2022/08/13 02:30:15;;;;;;;3.97;3.67;;;;;;;17.08;53.41;101034.28;5074248;28;20028;-22
2022/08/13 02:32:40;;;;;;;4.18;3.88;;;;;;;17.02;53.53;101027.31;5087333;28;20521;-23
2022/08/13 02:35:08;;;;;;;5.03;4.63;;;;;;;16.99;53.66;101038.94;5095113;28;20108;-21
2022/08/13 02:37:35;;;;;;;5.82;3.30;;;;;;;16.96;53.68;101031.03;5062522;28;20414;-22
2022/08/13 02:40:03;;;;;;;4.05;3.75;;;;;;;16.94;54.01;101032.88;5078065;28;20044;-21
2022/08/13 02:42:32;;;;;;;3.55;3.25;;;;;;;16.91;54.13;101035.66;5074732;28;20077;-22
2022/08/13 02:44:58;;;;;;;4.13;3.83;;;;;;;16.87;53.83;101039.31;5072945;28;20028;-23
2022/08/13 02:47:25;;;;;;;3.78;3.47;;;;;;;16.86;53.73;101034.88;5072279;28;20032;-22
2022/08/13 02:49:51;;;;;;;4.25;3.95;;;;;;;16.85;53.74;101044.69;5092918;28;20051;-22
2022/08/13 02:52:18;;;;;;;4.50;4.10;;;;;;;16.82;53.52;101042.13;5063025;28;20098;-21
2022/08/13 02:54:46;;;;;;;3.85;3.55;;;;;;;16.80;53.56;101042.16;5059499;28;20032;-24
2022/08/13 02:57:11;;;;;;;4.85;3.70;;;;;;;16.76;53.68;101034.28;5053828;28;20740;-24
2022/08/13 02:59:37;;;;;;;3.65;3.35;;;;;;;16.74;53.87;101037.00;5073783;28;20034;-22
2022/08/13 03:02:04;;;;;;;4.10;3.80;;;;;;;16.71;53.95;101031.78;5082526;28;20030;-22
2022/08/13 03:04:30;;;;;;;5.43;3.72;;;;;;;16.68;54.27;101031.88;5068681;28;20051;-21
2022/08/13 03:06:56;;;;;;;3.88;3.58;;;;;;;16.67;54.32;101035.44;5070644;28;20466;-22
2022/08/13 03:09:22;;;;;;;3.60;3.40;;;;;;;16.66;54.32;101045.22;5036361;28;20039;-21
2022/08/13 03:11:48;;;;;;;4.75;3.47;;;;;;;16.62;54.50;101048.91;5054101;28;20115;-24
2022/08/13 03:14:14;;;;;;;4.68;3.65;;;;;;;16.62;54.63;101050.69;5062846;28;20128;-26
2022/08/13 03:16:39;;;;;;;4.10;3.80;;;;;;;16.62;54.17;101043.56;5068611;28;20019;-22
2022/08/13 03:19:05;;;;;;;4.03;3.72;;;;;;;16.58;54.28;101041.91;5063262;28;20020;-21
2022/08/13 03:21:41;;;;;;;4.82;3.47;;;;;;;16.57;54.24;101040.16;5080080;28;20029;-21
2022/08/13 03:24:09;;;;;;;4.20;3.90;;;;;;;16.55;54.25;101045.50;5073143;28;20071;-23
2022/08/13 03:26:35;;;;;;;4.00;3.70;;;;;;;16.50;54.08;101044.78;5058097;28;20020;-21
2022/08/13 03:29:03;;;;;;;4.43;3.83;;;;;;;16.48;53.84;101045.75;5055613;28;20393;-21
2022/08/13 03:31:28;;;;;;;4.13;3.67;;;;;;;16.45;54.06;101057.34;5072073;28;20028;-21
2022/08/13 03:33:58;;;;;;;4.03;3.72;;;;;;;16.42;54.36;101052.13;5076859;28;20033;-22
2022/08/13 03:36:27;;;;;;;4.93;3.67;;;;;;;16.41;54.23;101047.72;5073363;28;20035;-22
2022/08/13 03:38:53;;;;;;;4.15;3.83;;;;;;;16.39;54.62;101052.19;5076395;28;20081;-22
2022/08/13 03:41:18;;;;;;;3.58;3.28;;;;;;;16.36;54.07;101047.84;5067445;28;20433;-21
2022/08/13 03:43:47;;;;;;;5.18;4.43;;;;;;;16.36;53.98;101055.81;5073840;28;20032;-22
2022/08/13 03:46:17;;;;;;;4.22;3.92;;;;;;;16.33;54.17;101052.34;5073611;28;20052;-23
2022/08/13 03:48:42;;;;;;;5.22;3.60;;;;;;;16.30;54.25;101053.31;5059843;28;20425;-22
2022/08/13 03:51:08;;;;;;;4.68;4.28;;;;;;;16.29;54.30;101047.13;5052267;28;20058;-22
2022/08/13 03:53:35;;;;;;;5.47;3.97;;;;;;;16.31;54.07;101043.56;5068153;28;20412;-23
2022/08/13 03:56:01;;;;;;;3.72;3.42;;;;;;;16.29;54.33;101041.81;5077824;28;20017;-21
2022/08/13 03:58:28;;;;;;;4.47;4.10;;;;;;;16.23;54.55;101041.09;5073724;28;20103;-21
2022/08/13 04:00:54;;;;;;;4.22;3.88;;;;;;;16.18;54.65;101038.56;5060439;28;20024;-23
2022/08/13 04:03:23;;;;;;;4.55;4.03;;;;;;;16.25;54.55;101047.25;5064435;28;20031;-23
2022/08/13 04:05:53;;;;;;;4.45;4.15;;;;;;;16.19;54.74;101050.94;5093593;28;20020;-21
2022/08/13 04:08:20;;;;;;;4.03;3.72;;;;;;;16.17;54.91;101044.78;5093636;28;20024;-23
2022/08/13 04:10:45;;;;;;;4.68;4.13;;;;;;;16.20;55.04;101041.19;5093440;28;20016;-22
2022/08/13 04:13:15;;;;;;;4.22;3.63;;;;;;;16.18;54.80;101041.22;5086089;28;20025;-21
2022/08/13 04:15:42;;;;;;;4.07;3.77;;;;;;;16.15;54.71;101051.94;5072791;28;20054;-23
2022/08/13 04:18:11;;;;;;;4.13;3.83;;;;;;;16.11;54.72;101045.81;5034207;28;20374;-22
2022/08/13 04:20:38;;;;;;;4.50;4.10;;;;;;;16.13;54.84;101045.78;5057644;28;20482;-23
2022/08/13 04:23:07;;;;;;;5.07;4.38;;;;;;;16.12;55.15;101049.38;5075474;28;20028;-22
2022/08/13 04:25:33;;;;;;;6.72;4.32;;;;;;;16.12;54.70;101055.56;5083831;28;20016;-23
2022/08/13 04:27:59;;;;;;;4.47;4.07;;;;;;;16.12;55.11;101054.69;5093011;28;20024;-22
2022/08/13 04:30:25;;;;;;;4.65;4.25;;;;;;;16.13;54.91;101056.41;5076057;28;20025;-23
2022/08/13 04:32:50;;;;;;;5.05;4.03;;;;;;;16.10;55.27;101052.06;5053571;28;20403;-22
2022/08/13 04:35:16;;;;;;;4.85;4.45;;;;;;;16.08;55.22;101045.03;5050319;28;20037;-21
2022/08/13 04:37:41;;;;;;;4.80;4.05;;;;;;;16.03;55.35;101050.47;5082056;28;20074;-23
2022/08/13 04:40:07;;;;;;;4.40;4.10;;;;;;;16.05;55.61;101055.75;5089561;28;20462;-21
2022/08/13 04:42:53;;;;;;;4.45;4.15;;;;;;;16.02;55.57;101048.72;5074177;28;20035;-22
2022/08/13 04:45:19;;;;;;;4.63;4.25;;;;;;;16.04;55.30;101049.56;5079482;28;20032;-22
2022/08/13 04:47:44;;;;;;;4.30;3.97;;;;;;;16.05;55.32;101058.41;5063661;28;20032;-24
2022/08/13 04:50:10;;;;;;;4.93;4.53;;;;;;;16.06;55.13;101054.84;5084074;28;20028;-24
2022/08/13 04:52:35;;;;;;;7.90;4.78;;;;;;;16.02;55.47;101054.94;5077228;28;20383;-22
2022/08/13 04:55:02;;;;;;;4.63;4.25;;;;;;;16.02;55.40;101054.94;5076221;28;20021;-22
2022/08/13 04:57:28;;;;;;;5.35;4.85;;;;;;;16.05;55.09;101059.31;5047784;28;20066;-21
2022/08/13 04:59:54;;;;;;;5.88;4.65;;;;;;;16.08;55.22;101053.03;5086851;28;20178;-21
2022/08/13 05:02:21;;;;;;;4.95;4.57;;;;;;;16.08;54.87;101059.22;5074947;28;20479;-21
2022/08/13 05:04:46;;;;;;;4.30;4.00;;;;;;;16.14;55.36;101053.72;5066428;28;20115;-22
2022/08/13 05:07:11;;;;;;;5.35;4.82;;;;;;;16.15;54.74;101059.94;5088332;28;20127;-22
2022/08/13 05:09:37;;;;;;;4.43;4.13;;;;;;;16.14;55.09;101059.03;5047467;28;20056;-23
2022/08/13 05:12:03;;;;;;;4.90;4.20;;;;;;;16.16;55.02;101061.66;5050838;28;20036;-24
2022/08/13 05:14:28;;;;;;;4.28;3.97;;;;;;;16.18;54.76;101059.84;5073530;28;20028;-22
2022/08/13 05:16:53;;;;;;;4.70;4.35;;;;;;;16.22;54.95;101063.28;5081085;28;20478;-23
2022/08/13 05:19:19;;;;;;;6.00;4.20;;;;;;;16.28;54.74;101066.66;5081102;28;20052;-23
2022/08/13 05:21:44;;;;;;;4.45;4.15;;;;;;;16.35;54.86;101056.75;5070161;28;20084;-21
2022/08/13 05:24:09;;;;;;;4.30;4.00;;;;;;;16.40;54.77;101059.25;5059250;28;20150;-22
2022/08/13 05:26:35;;;;;;;4.72;4.35;;;;;;;16.40;55.00;101059.25;5054620;28;21520;-23
2022/08/13 05:29:04;;;;;;;4.35;3.95;;;;;;;16.51;54.89;101057.16;5070702;28;20106;-22
2022/08/13 05:31:30;;;;;;;4.25;3.95;;;;;;;16.53;54.78;101055.34;5056674;28;20044;-22
2022/08/13 05:33:56;;;;;;;4.38;4.07;;;;;;;16.51;54.61;101062.50;5057412;28;20487;-23
2022/08/13 05:36:24;;;;;;;4.82;4.43;;;;;;;16.55;54.29;101053.50;5066753;28;20352;-24
2022/08/13 05:38:49;;;;;;;4.40;4.10;;;;;;;16.61;54.55;101051.59;5075163;28;20035;-22
2022/08/13 05:41:17;;;;;;;5.68;4.70;;;;;;;16.74;54.79;101052.13;5057082;28;20119;-22
2022/08/13 05:43:43;;;;;;;4.30;4.00;;;;;;;16.83;54.66;101053.63;5070321;28;20063;-22
2022/08/13 05:46:10;;;;;;;5.05;4.65;;;;;;;16.90;54.59;101047.19;5074917;28;20055;-21
2022/08/13 05:48:37;;;;;;;4.43;4.13;;;;;;;16.91;54.50;101048.97;5056946;28;20040;-22
2022/08/13 05:51:06;;;;;;;4.80;4.43;;;;;;;16.93;55.67;101050.66;5070488;28;20038;-21
2022/08/13 05:53:32;;;;;;;4.60;4.20;;;;;;;16.97;55.02;101047.91;5078584;28;20021;-21
2022/08/13 05:55:58;;;;;;;5.45;4.95;;;;;;;17.05;55.82;101041.44;5062144;28;20484;-21
2022/08/13 05:58:23;;;;;;;4.65;4.25;;;;;;;17.13;54.47;101037.66;5059446;28;20094;-21
2022/08/13 06:03:33;;;;;;;4.63;4.25;;;;;;;17.24;54.45;101042.69;5065313;28;20035;-24
2022/08/13 06:06:05;;;;;;;5.00;4.60;;;;;;;17.33;54.44;101055.72;5078628;28;20111;-22
2022/08/13 06:08:34;;;;;;;5.47;4.82;;;;;;;17.37;54.48;101041.38;5087377;28;20550;-23
2022/08/13 06:11:01;;;;;;;5.93;5.00;;;;;;;17.45;54.51;101049.13;5053620;28;20025;-21
2022/08/13 06:13:28;;;;;;;4.72;4.32;;;;;;;17.51;54.99;101051.56;5057761;28;20024;-22
2022/08/13 06:15:58;;;;;;;5.70;5.20;;;;;;;17.57;54.29;101042.50;5052556;28;20036;-22
2022/08/13 06:18:29;;;;;;;4.72;4.40;;;;;;;17.65;54.46;101044.94;5063797;28;20479;-22
2022/08/13 06:20:55;;;;;;;4.95;4.45;;;;;;;17.73;54.66;101042.88;5063754;28;20440;-26
2022/08/13 06:23:24;;;;;;;5.18;4.68;;;;;;;17.78;55.25;101046.25;5061372;28;20025;-23
2022/08/13 06:25:51;;;;;;;5.53;5.13;;;;;;;17.85;55.66;101041.63;5083962;28;20478;-23
2022/08/13 06:28:19;;;;;;;4.75;4.35;;;;;;;17.92;55.27;101035.16;5072730;28;20478;-22
2022/08/13 06:30:44;;;;;;;5.18;4.70;;;;;;;18.01;55.37;101041.94;5072142;28;20419;-21
2022/08/13 06:33:11;;;;;;;5.40;4.90;;;;;;;18.10;55.53;101034.59;5048130;28;20020;-22
2022/08/13 06:35:36;;;;;;;5.47;5.07;;;;;;;18.19;55.10;101044.94;5061067;28;20047;-23
2022/08/13 06:38:05;;;;;;;5.78;5.22;;;;;;;18.28;54.86;101046.41;5068103;28;20160;-23
2022/08/13 06:40:35;;;;;;;6.25;5.32;;;;;;;18.42;55.02;101048.56;5066337;28;20790;-22
2022/08/13 06:43:01;;;;;;;5.45;4.97;;;;;;;18.54;54.41;101050.78;5034338;28;20041;-22
2022/08/13 06:45:26;;;;;;;5.97;5.55;;;;;;;18.66;54.00;101049.47;5080149;28;20033;-23
2022/08/13 06:47:52;;;;;;;6.20;5.70;;;;;;;18.78;53.97;101050.84;5078483;28;20436;-24
2022/08/13 06:50:17;;;;;;;6.25;5.63;;;;;;;18.91;54.29;101042.34;5061684;28;20024;-22
2022/08/13 06:52:43;;;;;;;6.13;5.63;;;;;;;19.05;53.71;101042.69;5055826;28;20899;-21
2022/08/13 06:55:08;;;;;;;6.28;5.68;;;;;;;19.15;54.17;101040.56;5071272;28;20381;-22
2022/08/13 06:57:36;;;;;;;7.13;6.43;;;;;;;19.30;54.26;101031.03;5048386;28;20035;-22
2022/08/13 07:00:05;;;;;;;6.53;5.95;;;;;;;19.41;54.30;101029.75;5055047;28;20111;-22
2022/08/13 07:02:32;;;;;;;6.43;5.93;;;;;;;19.56;54.29;101033.56;5060002;28;20406;-21
2022/08/13 07:04:58;;;;;;;7.93;6.75;;;;;;;19.61;55.07;101035.13;5068790;28;20446;-22
2022/08/13 07:07:24;;;;;;;6.55;5.95;;;;;;;19.75;55.01;101039.03;5053214;28;20047;-21
2022/08/13 07:09:49;;;;;;;6.88;6.18;;;;;;;19.91;54.55;101041.91;5058267;28;20028;-22
2022/08/13 07:12:15;;;;;;;7.05;5.90;;;;;;;20.06;53.81;101031.53;5045018;28;20024;-24
2022/08/13 07:14:43;;;;;;;7.30;6.60;;;;;;;20.23;53.53;101038.81;5075369;28;20030;-23
2022/08/13 07:17:10;;;;;;;6.20;5.65;;;;;;;20.31;53.46;101036.66;5054083;28;20051;-21
2022/08/13 07:19:37;;;;;;;7.40;6.70;;;;;;;20.47;53.40;101027.97;5058568;28;20028;-24
2022/08/13 07:22:03;;;;;;;8.43;7.38;;;;;;;20.61;52.99;101030.00;5071424;28;20033;-22
2022/08/13 07:24:28;;;;;;;7.65;6.45;;;;;;;20.73;52.97;101028.56;5070459;28;20033;-22
2022/08/13 07:26:59;;;;;;;9.13;6.28;;;;;;;20.88;52.52;101030.56;5060558;28;20074;-25
2022/08/13 07:29:26;;;;;;;12.55;8.32;;;;;;;21.03;52.80;101022.72;5074041;28;20028;-22
2022/08/13 07:31:53;;;;;;;11.73;8.15;;;;;;;21.10;53.19;101016.13;5074214;28;20041;-22
2022/08/13 07:34:19;;;;;;;11.70;7.40;;;;;;;21.26;52.22;101012.72;5055581;28;20103;-22
2022/08/13 07:36:44;;;;;;;12.32;8.07;;;;;;;21.44;52.49;101015.44;5073380;28;20112;-22
2022/08/13 07:39:12;;;;;;;12.57;9.07;;;;;;;21.62;52.37;101019.00;5074053;28;20532;-23
2022/08/13 07:41:46;;;;;;;9.57;7.68;;;;;;;21.76;52.13;101018.34;5073854;28;20448;-21
2022/08/13 07:44:14;;;;;;;10.73;7.15;;;;;;;21.95;51.75;101015.59;5073825;28;20028;-21
2022/08/13 07:46:44;;;;;;;9.02;6.95;;;;;;;22.07;51.56;101016.75;5055507;28;20371;-24
2022/08/13 07:49:12;;;;;;;10.68;7.45;;;;;;;22.24;51.31;101015.84;5022350;28;20025;-23
2022/08/13 07:51:38;;;;;;;12.15;7.70;;;;;;;22.42;51.16;101026.59;5035672;28;20148;-22
2022/08/13 07:54:06;;;;;;;7.53;6.82;;;;;;;22.54;51.67;101022.38;5055040;28;20037;-22
2022/08/13 07:56:32;;;;;;;8.13;7.32;;;;;;;22.71;51.90;101020.59;5071046;28;20544;-22
2022/08/13 07:59:09;;;;;;;7.38;6.72;;;;;;;22.90;51.92;101023.13;5073565;28;20032;-21
2022/08/13 08:01:47;;;;;;;7.97;7.28;;;;;;;23.01;51.86;101027.91;5073470;28;20034;-23
2022/08/13 08:04:15;;;;;;;7.88;7.07;;;;;;;23.22;50.76;101024.94;5048036;28;20548;-22
2022/08/13 08:06:42;;;;;;;10.45;7.22;;;;;;;23.28;51.64;101030.00;5073301;28;20024;-23
2022/08/13 08:09:10;;;;;;;9.23;7.28;;;;;;;23.41;51.34;101032.88;5045850;28;20475;-22
2022/08/13 08:14:27;;;;;;;10.38;8.13;;;;;;;23.71;51.37;101034.75;5037889;28;20048;-22
2022/08/13 08:16:52;;;;;;;7.93;7.10;;;;;;;23.84;50.99;101034.84;5053090;28;20439;-23
2022/08/13 08:19:18;;;;;;;13.35;7.50;;;;;;;24.05;51.09;101037.22;5070127;28;20064;-22
2022/08/13 08:21:43;;;;;;;10.32;8.32;;;;;;;24.14;50.66;101039.38;5073056;28;20402;-22
2022/08/13 08:24:09;;;;;;;11.95;7.80;;;;;;;24.33;51.06;101040.94;5054753;28;20062;-22
2022/08/13 08:26:35;;;;;;;12.52;8.52;;;;;;;24.50;50.07;101039.06;5072874;28;20073;-22
2022/08/13 08:29:05;;;;;;;9.55;8.20;;;;;;;24.65;50.40;101045.28;5073264;28;20077;-21
2022/08/13 08:31:32;;;;;;;8.90;6.97;;;;;;;24.77;49.77;101049.06;5072747;28;20387;-22
2022/08/13 08:34:00;;;;;;;8.38;7.32;;;;;;;24.90;49.70;101041.94;5053306;28;20016;-21
2022/08/13 08:36:27;;;;;;;11.50;7.78;;;;;;;25.01;49.98;101034.97;5052905;28;20024;-21
2022/08/13 08:44:27;;;;;;;16.45;8.52;;;;;;;25.52;49.42;101038.88;5052467;28;20102;-21
2022/08/13 08:46:59;;;;;;;13.02;8.45;;;;;;;25.65;49.23;101038.94;5052721;28;20043;-21
2022/08/13 08:49:25;;;;;;;10.63;8.05;;;;;;;25.71;49.09;101033.97;5063587;28;20059;-21
2022/08/13 08:51:51;;;;;;;15.68;8.15;;;;;;;25.80;49.47;101047.84;5054666;28;20188;-24
2022/08/13 08:54:18;;;;;;;21.17;10.27;;;;;;;25.84;49.40;101041.28;5072100;28;20035;-22
2022/08/13 08:56:45;;;;;;;21.90;10.75;;;;;;;26.00;49.32;101027.56;5072218;28;20012;-22
2022/08/13 08:59:13;;;;;;;27.77;12.60;;;;;;;26.08;49.65;101032.44;5072360;28;20024;-23
2022/08/13 09:01:39;;;;;;;18.60;9.65;;;;;;;26.26;48.59;101023.03;5072594;28;20067;-21
2022/08/13 09:04:05;;;;;;;21.75;9.60;;;;;;;26.43;48.65;101039.94;5072207;28;20040;-22
2022/08/13 09:06:31;;;;;;;18.45;10.02;;;;;;;26.62;48.06;101035.91;5056142;28;20387;-21
2022/08/13 09:09:00;;;;;;;15.27;8.90;;;;;;;26.72;48.58;101026.16;5059613;28;20044;-21
2022/08/13 09:11:29;;;;;;;18.83;9.65;;;;;;;26.76;47.90;101032.22;5034439;28;20028;-23
2022/08/13 09:13:55;;;;;;;16.00;9.68;;;;;;;26.86;47.49;101024.28;5034332;28;20090;-21
2022/08/13 09:16:20;;;;;;;15.85;9.07;;;;;;;26.97;47.00;101018.13;5052306;28;20482;-22
2022/08/13 09:18:47;;;;;;;16.13;9.02;;;;;;;27.01;46.98;101022.34;5051812;28;20029;-22
2022/08/13 09:21:12;;;;;;;12.77;8.93;;;;;;;27.19;46.92;101017.41;5051786;28;20048;-21
2022/08/13 09:23:45;;;;;;;12.02;8.90;;;;;;;27.28;46.92;101015.84;5056078;28;20390;-23
2022/08/13 09:26:12;;;;;;;10.48;7.90;;;;;;;27.39;46.52;101015.91;5068880;28;20159;-21
2022/08/13 09:28:38;;;;;;;12.38;7.78;;;;;;;27.40;46.60;101005.91;5051904;28;20490;-21
2022/08/13 09:31:04;;;;;;;16.67;9.27;;;;;;;27.48;46.85;101011.63;5033975;28;20100;-22
2022/08/13 09:33:30;;;;;;;19.58;10.80;;;;;;;27.57;47.14;101011.91;5066955;28;20127;-21
2022/08/13 09:35:55;;;;;;;16.38;8.70;;;;;;;27.72;46.81;101012.59;5071883;28;20016;-22
2022/08/13 09:38:21;;;;;;;17.60;9.73;;;;;;;27.92;46.47;101016.47;5052162;28;20501;-22
2022/08/13 09:41:19;;;;;;;18.63;9.60;;;;;;;28.18;46.18;101021.72;5033872;28;20483;-23
2022/08/13 09:43:45;;;;;;;16.63;9.82;;;;;;;28.33;45.46;101018.78;5034805;28;20050;-26
2022/08/13 09:46:15;;;;;;;21.35;9.85;;;;;;;28.46;45.48;101016.81;5052673;28;20056;-21
2022/08/13 09:48:40;;;;;;;13.43;8.57;;;;;;;28.56;45.30;101015.09;5033710;28;20438;-22
2022/08/13 09:51:09;;;;;;;12.23;8.85;;;;;;;28.61;45.30;101013.88;5033424;28;20029;-22
2022/08/13 09:53:34;;;;;;;13.75;9.20;;;;;;;28.78;44.84;101004.34;5051404;28;20041;-22
2022/08/13 09:56:00;;;;;;;22.73;10.60;;;;;;;28.83;44.67;101009.41;5051909;28;20124;-22
2022/08/13 09:58:25;;;;;;;17.23;10.02;;;;;;;28.88;44.04;101018.03;5051458;28;20103;-23
2022/08/13 10:00:52;;;;;;;17.20;10.82;;;;;;;28.90;44.27;101014.19;5033389;28;20029;-21
2022/08/13 10:03:18;;;;;;;20.02;9.75;;;;;;;28.91;44.32;101007.81;5069512;28;20029;-22
2022/08/13 10:05:44;;;;;;;20.35;10.80;;;;;;;28.94;44.20;101007.56;5071131;28;20150;-21
2022/08/13 10:08:18;;;;;;;15.90;9.70;;;;;;;29.03;43.96;101000.50;5071374;28;20457;-22
2022/08/13 10:10:44;;;;;;;15.23;9.35;;;;;;;29.09;43.83;101006.41;5071383;28;20397;-21
2022/08/13 10:13:11;;;;;;;14.93;9.20;;;;;;;29.13;44.16;101003.31;5053075;28;20112;-21
2022/08/13 10:15:37;;;;;;;12.00;9.65;;;;;;;29.12;44.16;101009.75;5068067;28;20028;-22
2022/08/13 10:18:03;;;;;;;14.90;9.52;;;;;;;29.06;43.76;101004.81;5033433;28;20128;-21
2022/08/13 10:20:33;;;;;;;18.70;8.70;;;;;;;28.98;43.50;101001.88;5051245;28;20490;-22
2022/08/13 10:23:00;;;;;;;11.43;8.13;;;;;;;29.00;43.54;101011.63;5059037;28;20024;-21
2022/08/13 10:25:27;;;;;;;13.23;8.75;;;;;;;28.94;43.33;101017.53;5071314;28;20024;-21
2022/08/13 10:27:52;;;;;;;9.30;7.80;;;;;;;28.87;43.29;101013.59;5060298;28;20031;-22
2022/08/13 10:30:20;;;;;;;15.80;8.45;;;;;;;28.77;43.42;101011.63;5051107;28;20033;-22
2022/08/13 10:32:46;;;;;;;11.18;7.63;;;;;;;28.77;43.63;101021.63;5050633;28;20025;-21
2022/08/13 10:35:12;;;;;;;9.15;7.80;;;;;;;28.68;43.87;101012.38;5036644;28;20025;-22
2022/08/13 10:37:49;;;;;;;9.65;8.05;;;;;;;28.58;43.59;101016.81;5067319;28;20077;-22
2022/08/13 10:40:14;;;;;;;9.15;7.88;;;;;;;28.58;43.66;101012.28;5075268;28;20029;-21
2022/08/13 10:42:44;;;;;;;10.98;8.00;;;;;;;28.52;43.92;101010.91;5075281;28;20168;-21
2022/08/13 10:45:12;;;;;;;9.73;7.72;;;;;;;28.47;43.89;101015.84;5057348;28;20020;-21
2022/08/13 10:47:52;;;;;;;8.27;7.45;;;;;;;28.39;44.01;101019.19;5069817;28;20029;-21
2022/08/13 10:50:19;;;;;;;8.52;7.72;;;;;;;28.30;43.85;101009.91;5036922;28;20112;-21
2022/08/13 10:52:45;;;;;;;8.30;7.47;;;;;;;28.24;44.17;101012.22;5037851;28;20036;-21
2022/08/13 10:55:12;;;;;;;10.50;8.45;;;;;;;28.24;44.66;101013.06;5062393;28;20032;-21
2022/08/13 10:57:43;;;;;;;9.43;7.30;;;;;;;28.18;44.48;101008.16;5074365;28;20028;-23
2022/08/13 11:00:11;;;;;;;9.88;7.28;;;;;;;28.17;44.93;101014.53;5074867;28;20432;-21
2022/08/13 11:02:37;;;;;;;10.80;8.05;;;;;;;28.15;44.56;101005.69;5056831;28;20154;-21
2022/08/13 11:05:05;;;;;;;8.88;7.38;;;;;;;28.09;44.75;101007.03;5074795;28;20020;-27
2022/08/13 11:07:32;;;;;;;9.40;7.68;;;;;;;28.09;44.89;101003.44;5074453;28;20021;-23
2022/08/13 11:09:57;;;;;;;7.68;7.03;;;;;;;28.11;44.58;101006.91;5072402;28;20105;-24
2022/08/13 11:12:24;;;;;;;8.00;7.22;;;;;;;28.07;45.04;100997.31;5074421;28;20513;-21
2022/08/13 11:14:50;;;;;;;11.60;8.23;;;;;;;28.05;45.03;100994.72;5074347;28;20027;-21
2022/08/13 11:17:17;;;;;;;8.68;7.88;;;;;;;27.98;44.66;100986.19;5068252;28;20013;-22
2022/08/13 11:19:45;;;;;;;11.70;7.88;;;;;;;27.99;45.24;100996.06;5052034;28;20332;-21
2022/08/13 11:22:11;;;;;;;11.57;8.48;;;;;;;27.90;45.47;100992.22;5053907;28;20029;-21
2022/08/13 11:24:36;;;;;;;12.15;9.15;;;;;;;27.97;45.15;100991.75;5053883;28;20025;-22
2022/08/13 11:27:02;;;;;;;13.90;8.55;;;;;;;27.99;45.26;100984.34;5053912;28;20032;-21
2022/08/13 11:29:27;;;;;;;18.02;9.93;;;;;;;27.97;45.55;100979.03;5035937;28;20031;-21
2022/08/13 11:31:52;;;;;;;24.70;13.18;;;;;;;27.98;45.89;100975.38;5054181;28;20035;-22
2022/08/13 11:34:18;;;;;;;28.95;11.93;;;;;;;28.01;46.34;100977.81;5059205;28;20142;-21
2022/08/13 11:36:43;;;;;;;21.80;11.80;;;;;;;28.04;45.89;100971.31;5073810;28;20017;-21
2022/08/13 11:39:11;;;;;;;24.42;12.63;;;;;;;28.10;45.85;100975.38;5055702;28;20131;-23
2022/08/13 11:41:36;;;;;;;18.83;10.85;;;;;;;28.03;45.89;100965.00;5073943;28;20494;-21